sensor_id;sensor_type;location;lat;lon;timestamp;temperature;humidity
44767;DHT22;30487;48.716;9.272;2024-02-28T00:02:09;9.10;99.90
44767;DHT22;30487;48.716;9.272;2024-02-28T00:04:34;9.00;99.90
44767;DHT22;30487;48.716;9.272;2024-02-28T00:07:00;8.90;99.90
44767;DHT22;30487;48.716;9.272;2024-02-28T00:09:25;8.80;99.90
44767;DHT22;30487;48.716;9.272;2024-02-28T00:11:51;8.90;99.90
44767;DHT22;30487;48.716;9.272;2024-02-28T00:14:17;8.90;99.90
44767;DHT22;30487;48.716;9.272;2024-02-28T00:16:43;8.90;99.90
44767;DHT22;30487;48.716;9.272;2024-02-28T00:19:09;9.00;99.90
44767;DHT22;30487;48.716;9.272;2024-02-28T00:21:36;9.00;99.90
44767;DHT22;30487;48.716;9.272;2024-02-28T00:24:02;9.00;99.90
44767;DHT22;30487;48.716;9.272;2024-02-28T00:26:28;9.00;99.90
44767;DHT22;30487;48.716;9.272;2024-02-28T00:28:53;9.00;99.90
44767;DHT22;30487;48.716;9.272;2024-02-28T00:31:19;8.90;99.90
44767;DHT22;30487;48.716;9.272;2024-02-28T00:33:47;8.90;99.90
44767;DHT22;30487;48.716;9.272;2024-02-28T00:36:13;8.90;99.90
44767;DHT22;30487;48.716;9.272;2024-02-28T00:38:38;8.90;99.90
44767;DHT22;30487;48.716;9.272;2024-02-28T00:41:04;8.90;99.90
44767;DHT22;30487;48.716;9.272;2024-02-28T00:43:30;8.90;99.90
44767;DHT22;30487;48.716;9.272;2024-02-28T00:45:55;8.90;99.90
44767;DHT22;30487;48.716;9.272;2024-02-28T00:48:23;8.90;99.90
44767;DHT22;30487;48.716;9.272;2024-02-28T00:50:49;8.90;99.90
44767;DHT22;30487;48.716;9.272;2024-02-28T00:53:14;8.90;99.90
44767;DHT22;30487;48.716;9.272;2024-02-28T00:55:40;8.90;99.90
44767;DHT22;30487;48.716;9.272;2024-02-28T00:58:05;8.90;99.90
44767;DHT22;30487;48.716;9.272;2024-02-28T01:00:31;8.90;99.90
44767;DHT22;30487;48.716;9.272;2024-02-28T01:02:56;8.90;99.90
44767;DHT22;30487;48.716;9.272;2024-02-28T01:05:22;8.80;99.90
44767;DHT22;30487;48.716;9.272;2024-02-28T01:07:47;8.80;99.90
44767;DHT22;30487;48.716;9.272;2024-02-28T01:10:13;8.80;99.90
44767;DHT22;30487;48.716;9.272;2024-02-28T01:12:39;8.80;99.90
44767;DHT22;30487;48.716;9.272;2024-02-28T01:15:04;8.70;99.90
44767;DHT22;30487;48.716;9.272;2024-02-28T01:17:30;8.70;99.90
44767;DHT22;30487;48.716;9.272;2024-02-28T01:19:56;8.60;99.90
44767;DHT22;30487;48.716;9.272;2024-02-28T01:22:22;8.60;99.90
44767;DHT22;30487;48.716;9.272;2024-02-28T01:24:47;8.60;99.90
44767;DHT22;30487;48.716;9.272;2024-02-28T01:27:13;8.50;99.90
44767;DHT22;30487;48.716;9.272;2024-02-28T01:29:38;8.60;99.90
44767;DHT22;30487;48.716;9.272;2024-02-28T01:32:04;8.60;99.90
44767;DHT22;30487;48.716;9.272;2024-02-28T01:34:30;8.60;99.90
44767;DHT22;30487;48.716;9.272;2024-02-28T01:36:55;8.60;99.90
44767;DHT22;30487;48.716;9.272;2024-02-28T01:39:22;8.50;99.90
44767;DHT22;30487;48.716;9.272;2024-02-28T01:41:54;8.50;99.90
44767;DHT22;30487;48.716;9.272;2024-02-28T01:44:21;8.50;99.90
44767;DHT22;30487;48.716;9.272;2024-02-28T01:46:46;8.50;99.90
44767;DHT22;30487;48.716;9.272;2024-02-28T01:49:12;8.40;99.90
44767;DHT22;30487;48.716;9.272;2024-02-28T01:51:39;8.40;99.90
44767;DHT22;30487;48.716;9.272;2024-02-28T01:54:05;8.40;99.90
44767;DHT22;30487;48.716;9.272;2024-02-28T01:56:31;8.30;99.90
44767;DHT22;30487;48.716;9.272;2024-02-28T01:58:57;8.30;99.90
44767;DHT22;30487;48.716;9.272;2024-02-28T02:01:23;8.30;99.90
44767;DHT22;30487;48.716;9.272;2024-02-28T02:03:49;8.30;99.90
44767;DHT22;30487;48.716;9.272;2024-02-28T02:06:14;8.30;99.90
44767;DHT22;30487;48.716;9.272;2024-02-28T02:08:40;8.30;99.90
44767;DHT22;30487;48.716;9.272;2024-02-28T02:11:07;8.30;99.90
44767;DHT22;30487;48.716;9.272;2024-02-28T02:13:32;8.30;99.90
44767;DHT22;30487;48.716;9.272;2024-02-28T02:15:58;8.30;99.90
44767;DHT22;30487;48.716;9.272;2024-02-28T02:18:23;8.30;99.90
44767;DHT22;30487;48.716;9.272;2024-02-28T02:21:01;8.30;99.90
44767;DHT22;30487;48.716;9.272;2024-02-28T02:23:27;8.30;99.90
44767;DHT22;30487;48.716;9.272;2024-02-28T02:25:53;8.30;99.90
44767;DHT22;30487;48.716;9.272;2024-02-28T02:28:19;8.30;99.90
44767;DHT22;30487;48.716;9.272;2024-02-28T02:30:44;8.30;99.90
44767;DHT22;30487;48.716;9.272;2024-02-28T02:33:12;8.30;99.90
44767;DHT22;30487;48.716;9.272;2024-02-28T02:35:37;8.30;99.90
44767;DHT22;30487;48.716;9.272;2024-02-28T02:38:03;8.30;99.90
44767;DHT22;30487;48.716;9.272;2024-02-28T02:40:28;8.30;99.90
44767;DHT22;30487;48.716;9.272;2024-02-28T02:42:54;8.40;99.90
44767;DHT22;30487;48.716;9.272;2024-02-28T02:45:20;8.40;99.90
44767;DHT22;30487;48.716;9.272;2024-02-28T02:47:45;8.50;99.90
44767;DHT22;30487;48.716;9.272;2024-02-28T02:50:11;8.50;99.90
44767;DHT22;30487;48.716;9.272;2024-02-28T02:52:36;8.50;99.90
44767;DHT22;30487;48.716;9.272;2024-02-28T02:55:02;8.50;99.90
44767;DHT22;30487;48.716;9.272;2024-02-28T02:57:28;8.50;99.90
44767;DHT22;30487;48.716;9.272;2024-02-28T02:59:56;8.40;99.90
44767;DHT22;30487;48.716;9.272;2024-02-28T03:02:21;8.30;99.90
44767;DHT22;30487;48.716;9.272;2024-02-28T03:04:47;8.30;99.90
44767;DHT22;30487;48.716;9.272;2024-02-28T03:07:12;8.20;99.90
44767;DHT22;30487;48.716;9.272;2024-02-28T03:09:38;8.20;99.90
44767;DHT22;30487;48.716;9.272;2024-02-28T03:12:04;8.20;99.90
44767;DHT22;30487;48.716;9.272;2024-02-28T03:14:29;8.20;99.90
44767;DHT22;30487;48.716;9.272;2024-02-28T03:16:55;8.20;99.90
44767;DHT22;30487;48.716;9.272;2024-02-28T03:19:20;8.20;99.90
44767;DHT22;30487;48.716;9.272;2024-02-28T03:21:46;8.20;99.90
44767;DHT22;30487;48.716;9.272;2024-02-28T03:24:12;8.20;99.90
44767;DHT22;30487;48.716;9.272;2024-02-28T03:26:37;8.20;99.90
44767;DHT22;30487;48.716;9.272;2024-02-28T03:29:03;8.20;99.90
44767;DHT22;30487;48.716;9.272;2024-02-28T03:31:28;8.20;99.90
44767;DHT22;30487;48.716;9.272;2024-02-28T03:33:54;8.20;99.90
44767;DHT22;30487;48.716;9.272;2024-02-28T03:36:20;8.20;99.90
44767;DHT22;30487;48.716;9.272;2024-02-28T03:38:45;8.20;99.90
44767;DHT22;30487;48.716;9.272;2024-02-28T03:41:11;8.20;99.90
44767;DHT22;30487;48.716;9.272;2024-02-28T03:43:37;8.20;99.90
44767;DHT22;30487;48.716;9.272;2024-02-28T03:46:03;8.20;99.90
44767;DHT22;30487;48.716;9.272;2024-02-28T03:48:28;8.20;99.90
44767;DHT22;30487;48.716;9.272;2024-02-28T03:50:54;8.20;99.90
44767;DHT22;30487;48.716;9.272;2024-02-28T03:53:19;8.20;99.90
44767;DHT22;30487;48.716;9.272;2024-02-28T03:55:45;8.20;99.90
44767;DHT22;30487;48.716;9.272;2024-02-28T03:58:11;8.20;99.90
44767;DHT22;30487;48.716;9.272;2024-02-28T04:00:37;8.20;99.90
44767;DHT22;30487;48.716;9.272;2024-02-28T04:03:04;8.20;99.90
44767;DHT22;30487;48.716;9.272;2024-02-28T04:05:30;8.20;99.90
44767;DHT22;30487;48.716;9.272;2024-02-28T04:07:56;8.20;99.90
44767;DHT22;30487;48.716;9.272;2024-02-28T04:10:21;8.20;99.90
44767;DHT22;30487;48.716;9.272;2024-02-28T04:12:47;8.20;99.90
44767;DHT22;30487;48.716;9.272;2024-02-28T04:15:14;8.20;99.90
44767;DHT22;30487;48.716;9.272;2024-02-28T04:17:40;8.10;99.90
44767;DHT22;30487;48.716;9.272;2024-02-28T04:20:12;8.10;99.90
44767;DHT22;30487;48.716;9.272;2024-02-28T04:22:38;8.10;99.90
44767;DHT22;30487;48.716;9.272;2024-02-28T04:25:08;8.10;99.90
44767;DHT22;30487;48.716;9.272;2024-02-28T04:27:35;8.10;99.90
44767;DHT22;30487;48.716;9.272;2024-02-28T04:30:00;8.10;99.90
44767;DHT22;30487;48.716;9.272;2024-02-28T04:32:26;8.00;99.90
44767;DHT22;30487;48.716;9.272;2024-02-28T04:34:52;8.00;99.90
44767;DHT22;30487;48.716;9.272;2024-02-28T04:37:17;8.00;99.90
44767;DHT22;30487;48.716;9.272;2024-02-28T04:39:43;7.90;99.90
44767;DHT22;30487;48.716;9.272;2024-02-28T04:42:08;7.90;99.90
44767;DHT22;30487;48.716;9.272;2024-02-28T04:44:34;7.90;99.90
44767;DHT22;30487;48.716;9.272;2024-02-28T04:46:59;7.80;99.90
44767;DHT22;30487;48.716;9.272;2024-02-28T04:49:26;7.80;99.90
44767;DHT22;30487;48.716;9.272;2024-02-28T04:51:51;7.80;99.90
44767;DHT22;30487;48.716;9.272;2024-02-28T04:54:17;7.80;99.90
44767;DHT22;30487;48.716;9.272;2024-02-28T04:56:43;7.70;99.90
44767;DHT22;30487;48.716;9.272;2024-02-28T04:59:10;7.70;99.90
44767;DHT22;30487;48.716;9.272;2024-02-28T05:01:36;7.70;99.90
44767;DHT22;30487;48.716;9.272;2024-02-28T05:04:07;7.70;99.90
44767;DHT22;30487;48.716;9.272;2024-02-28T05:06:33;7.70;99.90
44767;DHT22;30487;48.716;9.272;2024-02-28T05:08:59;7.70;99.90
44767;DHT22;30487;48.716;9.272;2024-02-28T05:11:25;7.70;99.90
44767;DHT22;30487;48.716;9.272;2024-02-28T05:13:50;7.70;99.90
44767;DHT22;30487;48.716;9.272;2024-02-28T05:16:16;7.70;99.90
44767;DHT22;30487;48.716;9.272;2024-02-28T05:18:43;7.70;99.90
44767;DHT22;30487;48.716;9.272;2024-02-28T05:21:10;7.70;99.90
44767;DHT22;30487;48.716;9.272;2024-02-28T05:23:35;7.70;99.90
44767;DHT22;30487;48.716;9.272;2024-02-28T05:26:02;7.70;99.90
44767;DHT22;30487;48.716;9.272;2024-02-28T05:28:30;7.70;99.90
44767;DHT22;30487;48.716;9.272;2024-02-28T05:30:56;7.70;99.90
44767;DHT22;30487;48.716;9.272;2024-02-28T05:33:22;7.60;99.90
44767;DHT22;30487;48.716;9.272;2024-02-28T05:35:48;7.70;99.90
44767;DHT22;30487;48.716;9.272;2024-02-28T05:38:13;7.60;99.90
44767;DHT22;30487;48.716;9.272;2024-02-28T05:40:41;7.70;99.90
44767;DHT22;30487;48.716;9.272;2024-02-28T05:43:07;7.70;99.90
44767;DHT22;30487;48.716;9.272;2024-02-28T05:45:32;7.70;99.90
44767;DHT22;30487;48.716;9.272;2024-02-28T05:47:58;7.70;99.90
44767;DHT22;30487;48.716;9.272;2024-02-28T05:50:24;7.70;99.90
44767;DHT22;30487;48.716;9.272;2024-02-28T05:52:50;7.70;99.90
44767;DHT22;30487;48.716;9.272;2024-02-28T05:55:17;7.70;99.90
44767;DHT22;30487;48.716;9.272;2024-02-28T05:57:42;7.60;99.90
44767;DHT22;30487;48.716;9.272;2024-02-28T06:00:08;7.60;99.90
44767;DHT22;30487;48.716;9.272;2024-02-28T06:02:37;7.60;99.90
44767;DHT22;30487;48.716;9.272;2024-02-28T06:05:03;7.60;99.90
44767;DHT22;30487;48.716;9.272;2024-02-28T06:07:30;7.60;99.90
44767;DHT22;30487;48.716;9.272;2024-02-28T06:09:55;7.70;99.90
44767;DHT22;30487;48.716;9.272;2024-02-28T06:12:21;7.70;99.90
44767;DHT22;30487;48.716;9.272;2024-02-28T06:14:47;7.70;99.90
44767;DHT22;30487;48.716;9.272;2024-02-28T06:17:13;7.70;99.90
44767;DHT22;30487;48.716;9.272;2024-02-28T06:19:38;7.70;99.90
44767;DHT22;30487;48.716;9.272;2024-02-28T06:22:04;7.70;99.90
44767;DHT22;30487;48.716;9.272;2024-02-28T06:24:29;7.70;99.90
44767;DHT22;30487;48.716;9.272;2024-02-28T06:26:55;7.70;99.90
44767;DHT22;30487;48.716;9.272;2024-02-28T06:29:20;7.70;99.90
44767;DHT22;30487;48.716;9.272;2024-02-28T06:31:51;7.60;99.90
44767;DHT22;30487;48.716;9.272;2024-02-28T06:34:17;7.60;99.90
44767;DHT22;30487;48.716;9.272;2024-02-28T06:36:43;7.60;99.90
44767;DHT22;30487;48.716;9.272;2024-02-28T06:39:09;7.60;99.90
44767;DHT22;30487;48.716;9.272;2024-02-28T06:41:34;7.60;99.90
44767;DHT22;30487;48.716;9.272;2024-02-28T06:44:00;7.60;99.90
44767;DHT22;30487;48.716;9.272;2024-02-28T06:46:26;7.50;99.90
44767;DHT22;30487;48.716;9.272;2024-02-28T06:48:51;7.50;99.90
44767;DHT22;30487;48.716;9.272;2024-02-28T06:51:17;7.50;99.90
44767;DHT22;30487;48.716;9.272;2024-02-28T06:53:43;7.50;99.90
44767;DHT22;30487;48.716;9.272;2024-02-28T06:56:08;7.60;99.90
44767;DHT22;30487;48.716;9.272;2024-02-28T06:58:34;7.50;99.90
44767;DHT22;30487;48.716;9.272;2024-02-28T07:01:00;7.60;99.90
44767;DHT22;30487;48.716;9.272;2024-02-28T07:03:25;7.60;99.90
44767;DHT22;30487;48.716;9.272;2024-02-28T07:05:51;7.60;99.90
44767;DHT22;30487;48.716;9.272;2024-02-28T07:08:18;7.60;99.90
44767;DHT22;30487;48.716;9.272;2024-02-28T07:10:44;7.70;99.90
44767;DHT22;30487;48.716;9.272;2024-02-28T07:13:12;7.70;99.90
44767;DHT22;30487;48.716;9.272;2024-02-28T07:15:38;7.70;99.90
44767;DHT22;30487;48.716;9.272;2024-02-28T07:18:07;7.70;99.90
44767;DHT22;30487;48.716;9.272;2024-02-28T07:20:33;7.70;99.90
44767;DHT22;30487;48.716;9.272;2024-02-28T07:22:59;7.70;99.90
44767;DHT22;30487;48.716;9.272;2024-02-28T07:25:25;7.70;99.90
44767;DHT22;30487;48.716;9.272;2024-02-28T07:27:50;7.70;99.90
44767;DHT22;30487;48.716;9.272;2024-02-28T07:30:16;7.80;99.90
44767;DHT22;30487;48.716;9.272;2024-02-28T07:32:41;7.70;99.90
44767;DHT22;30487;48.716;9.272;2024-02-28T07:35:07;7.90;99.90
44767;DHT22;30487;48.716;9.272;2024-02-28T07:37:33;7.90;99.90
44767;DHT22;30487;48.716;9.272;2024-02-28T07:39:58;7.80;99.90
44767;DHT22;30487;48.716;9.272;2024-02-28T07:42:25;7.90;99.90
44767;DHT22;30487;48.716;9.272;2024-02-28T07:44:50;7.90;99.90
44767;DHT22;30487;48.716;9.272;2024-02-28T07:47:19;7.90;99.90
44767;DHT22;30487;48.716;9.272;2024-02-28T07:49:45;7.90;99.90
44767;DHT22;30487;48.716;9.272;2024-02-28T07:52:10;7.90;99.90
44767;DHT22;30487;48.716;9.272;2024-02-28T07:54:36;7.90;99.90
44767;DHT22;30487;48.716;9.272;2024-02-28T07:57:02;7.90;99.90
44767;DHT22;30487;48.716;9.272;2024-02-28T07:59:28;7.90;99.90
44767;DHT22;30487;48.716;9.272;2024-02-28T08:01:53;7.90;99.90
44767;DHT22;30487;48.716;9.272;2024-02-28T08:04:19;8.00;99.90
44767;DHT22;30487;48.716;9.272;2024-02-28T08:06:44;8.00;99.90
44767;DHT22;30487;48.716;9.272;2024-02-28T08:09:10;7.90;99.90
44767;DHT22;30487;48.716;9.272;2024-02-28T08:11:35;7.90;99.90
44767;DHT22;30487;48.716;9.272;2024-02-28T08:14:01;7.90;99.90
44767;DHT22;30487;48.716;9.272;2024-02-28T08:16:26;7.90;99.90
44767;DHT22;30487;48.716;9.272;2024-02-28T08:18:52;8.00;99.90
44767;DHT22;30487;48.716;9.272;2024-02-28T08:21:18;8.00;99.90
44767;DHT22;30487;48.716;9.272;2024-02-28T08:23:43;7.90;99.90
44767;DHT22;30487;48.716;9.272;2024-02-28T08:26:10;8.00;99.90
44767;DHT22;30487;48.716;9.272;2024-02-28T08:28:35;8.00;99.90
44767;DHT22;30487;48.716;9.272;2024-02-28T08:31:01;8.00;99.90
44767;DHT22;30487;48.716;9.272;2024-02-28T08:33:27;8.00;99.90
44767;DHT22;30487;48.716;9.272;2024-02-28T08:35:52;8.10;99.90
44767;DHT22;30487;48.716;9.272;2024-02-28T08:38:19;8.10;99.90
44767;DHT22;30487;48.716;9.272;2024-02-28T08:40:44;8.10;99.90
44767;DHT22;30487;48.716;9.272;2024-02-28T08:43:10;8.10;99.90
44767;DHT22;30487;48.716;9.272;2024-02-28T08:45:36;8.10;99.90
44767;DHT22;30487;48.716;9.272;2024-02-28T08:48:02;8.10;99.90
44767;DHT22;30487;48.716;9.272;2024-02-28T08:50:28;8.10;99.90
44767;DHT22;30487;48.716;9.272;2024-02-28T08:52:54;8.10;99.90
44767;DHT22;30487;48.716;9.272;2024-02-28T08:55:20;8.10;99.90
44767;DHT22;30487;48.716;9.272;2024-02-28T08:57:47;8.10;99.90
44767;DHT22;30487;48.716;9.272;2024-02-28T09:00:13;8.10;99.90
44767;DHT22;30487;48.716;9.272;2024-02-28T09:02:40;8.20;99.90
44767;DHT22;30487;48.716;9.272;2024-02-28T09:05:06;8.20;99.90
44767;DHT22;30487;48.716;9.272;2024-02-28T09:07:32;8.20;99.90
44767;DHT22;30487;48.716;9.272;2024-02-28T09:09:58;8.20;99.90
44767;DHT22;30487;48.716;9.272;2024-02-28T09:12:23;8.30;99.90
44767;DHT22;30487;48.716;9.272;2024-02-28T09:14:49;8.30;99.90
44767;DHT22;30487;48.716;9.272;2024-02-28T09:17:20;8.30;99.90
44767;DHT22;30487;48.716;9.272;2024-02-28T09:19:45;8.30;99.90
44767;DHT22;30487;48.716;9.272;2024-02-28T09:22:11;8.30;99.90
44767;DHT22;30487;48.716;9.272;2024-02-28T09:24:37;8.30;99.90
44767;DHT22;30487;48.716;9.272;2024-02-28T09:27:02;8.40;99.90
44767;DHT22;30487;48.716;9.272;2024-02-28T09:29:28;8.40;99.90
44767;DHT22;30487;48.716;9.272;2024-02-28T09:31:54;8.40;99.90
44767;DHT22;30487;48.716;9.272;2024-02-28T09:34:19;8.40;99.90
44767;DHT22;30487;48.716;9.272;2024-02-28T09:36:45;8.40;99.90
44767;DHT22;30487;48.716;9.272;2024-02-28T09:39:14;8.40;99.90
44767;DHT22;30487;48.716;9.272;2024-02-28T09:41:43;8.40;99.90
44767;DHT22;30487;48.716;9.272;2024-02-28T09:44:08;8.40;99.90
44767;DHT22;30487;48.716;9.272;2024-02-28T09:46:35;8.40;99.90
44767;DHT22;30487;48.716;9.272;2024-02-28T09:49:07;8.50;99.90
44767;DHT22;30487;48.716;9.272;2024-02-28T09:51:34;8.50;99.90
44767;DHT22;30487;48.716;9.272;2024-02-28T09:54:03;8.50;99.90
44767;DHT22;30487;48.716;9.272;2024-02-28T09:56:29;8.50;99.90
44767;DHT22;30487;48.716;9.272;2024-02-28T09:58:55;8.60;99.90
44767;DHT22;30487;48.716;9.272;2024-02-28T10:01:25;8.60;99.90
44767;DHT22;30487;48.716;9.272;2024-02-28T10:03:52;8.60;99.90
44767;DHT22;30487;48.716;9.272;2024-02-28T10:06:19;8.60;99.90
44767;DHT22;30487;48.716;9.272;2024-02-28T10:08:45;8.70;99.90
44767;DHT22;30487;48.716;9.272;2024-02-28T10:11:22;8.80;99.90
44767;DHT22;30487;48.716;9.272;2024-02-28T10:13:48;8.90;99.90
44767;DHT22;30487;48.716;9.272;2024-02-28T10:16:14;9.00;99.90
44767;DHT22;30487;48.716;9.272;2024-02-28T10:18:45;9.00;99.90
44767;DHT22;30487;48.716;9.272;2024-02-28T10:21:11;9.10;99.90
44767;DHT22;30487;48.716;9.272;2024-02-28T10:23:44;9.10;99.90
44767;DHT22;30487;48.716;9.272;2024-02-28T10:26:10;9.20;99.90
44767;DHT22;30487;48.716;9.272;2024-02-28T10:28:37;9.20;99.90
44767;DHT22;30487;48.716;9.272;2024-02-28T10:31:04;9.20;99.90
44767;DHT22;30487;48.716;9.272;2024-02-28T10:33:30;9.20;99.90
44767;DHT22;30487;48.716;9.272;2024-02-28T10:35:59;9.30;99.90
44767;DHT22;30487;48.716;9.272;2024-02-28T10:38:26;9.30;99.90
44767;DHT22;30487;48.716;9.272;2024-02-28T10:40:53;9.30;99.90
44767;DHT22;30487;48.716;9.272;2024-02-28T10:43:19;9.30;99.90
44767;DHT22;30487;48.716;9.272;2024-02-28T10:45:46;9.20;99.90
44767;DHT22;30487;48.716;9.272;2024-02-28T10:48:14;9.20;99.90
44767;DHT22;30487;48.716;9.272;2024-02-28T10:50:40;9.20;99.90
44767;DHT22;30487;48.716;9.272;2024-02-28T10:53:12;9.20;99.90
44767;DHT22;30487;48.716;9.272;2024-02-28T10:55:40;9.20;99.90
44767;DHT22;30487;48.716;9.272;2024-02-28T10:58:10;9.10;99.90
44767;DHT22;30487;48.716;9.272;2024-02-28T11:00:40;9.10;99.90
44767;DHT22;30487;48.716;9.272;2024-02-28T11:03:15;9.10;99.90
44767;DHT22;30487;48.716;9.272;2024-02-28T11:05:42;9.10;99.90
44767;DHT22;30487;48.716;9.272;2024-02-28T11:08:19;9.10;99.90
44767;DHT22;30487;48.716;9.272;2024-02-28T11:10:46;9.10;99.90
44767;DHT22;30487;48.716;9.272;2024-02-28T11:13:22;9.20;99.90
44767;DHT22;30487;48.716;9.272;2024-02-28T11:15:48;9.20;99.90
44767;DHT22;30487;48.716;9.272;2024-02-28T11:18:13;9.20;99.90
44767;DHT22;30487;48.716;9.272;2024-02-28T11:20:39;9.20;99.90
44767;DHT22;30487;48.716;9.272;2024-02-28T11:23:09;9.30;99.90
44767;DHT22;30487;48.716;9.272;2024-02-28T11:25:35;9.30;99.90
44767;DHT22;30487;48.716;9.272;2024-02-28T11:28:00;9.30;99.90
44767;DHT22;30487;48.716;9.272;2024-02-28T11:30:26;9.20;99.90
44767;DHT22;30487;48.716;9.272;2024-02-28T11:32:52;9.10;99.90
44767;DHT22;30487;48.716;9.272;2024-02-28T11:35:24;9.10;99.90
44767;DHT22;30487;48.716;9.272;2024-02-28T11:37:50;9.10;99.90
44767;DHT22;30487;48.716;9.272;2024-02-28T11:40:16;9.10;99.90
44767;DHT22;30487;48.716;9.272;2024-02-28T11:42:42;9.10;99.90
44767;DHT22;30487;48.716;9.272;2024-02-28T11:45:10;9.10;99.90
44767;DHT22;30487;48.716;9.272;2024-02-28T11:47:36;9.00;99.90
44767;DHT22;30487;48.716;9.272;2024-02-28T11:50:03;9.00;99.90
44767;DHT22;30487;48.716;9.272;2024-02-28T11:52:33;9.00;99.90
44767;DHT22;30487;48.716;9.272;2024-02-28T11:54:59;9.00;99.90
44767;DHT22;30487;48.716;9.272;2024-02-28T11:57:25;9.10;99.90
44767;DHT22;30487;48.716;9.272;2024-02-28T11:59:51;9.00;99.90
44767;DHT22;30487;48.716;9.272;2024-02-28T12:02:17;9.00;99.90
44767;DHT22;30487;48.716;9.272;2024-02-28T12:04:44;9.00;99.90
44767;DHT22;30487;48.716;9.272;2024-02-28T12:07:10;9.00;99.90
44767;DHT22;30487;48.716;9.272;2024-02-28T12:09:36;9.10;99.90
44767;DHT22;30487;48.716;9.272;2024-02-28T12:12:02;9.00;99.90
44767;DHT22;30487;48.716;9.272;2024-02-28T12:14:31;9.00;99.90
44767;DHT22;30487;48.716;9.272;2024-02-28T12:16:58;9.00;99.90
44767;DHT22;30487;48.716;9.272;2024-02-28T12:19:24;9.00;99.90
44767;DHT22;30487;48.716;9.272;2024-02-28T12:21:50;9.10;99.90
44767;DHT22;30487;48.716;9.272;2024-02-28T12:24:16;9.00;99.90
44767;DHT22;30487;48.716;9.272;2024-02-28T12:26:41;9.10;99.90
44767;DHT22;30487;48.716;9.272;2024-02-28T12:29:07;9.00;99.90
44767;DHT22;30487;48.716;9.272;2024-02-28T12:31:35;9.10;99.90
44767;DHT22;30487;48.716;9.272;2024-02-28T12:34:02;9.00;99.90
44767;DHT22;30487;48.716;9.272;2024-02-28T12:36:29;9.00;99.90
44767;DHT22;30487;48.716;9.272;2024-02-28T12:38:56;9.00;99.90
44767;DHT22;30487;48.716;9.272;2024-02-28T12:41:22;9.00;99.90
44767;DHT22;30487;48.716;9.272;2024-02-28T12:43:48;9.00;99.90
44767;DHT22;30487;48.716;9.272;2024-02-28T12:46:13;9.00;99.90
44767;DHT22;30487;48.716;9.272;2024-02-28T12:48:40;9.10;99.90
44767;DHT22;30487;48.716;9.272;2024-02-28T12:51:20;9.10;99.90
44767;DHT22;30487;48.716;9.272;2024-02-28T12:53:46;9.10;99.90
44767;DHT22;30487;48.716;9.272;2024-02-28T12:56:11;9.10;99.90
44767;DHT22;30487;48.716;9.272;2024-02-28T12:58:37;9.10;99.90
44767;DHT22;30487;48.716;9.272;2024-02-28T13:01:03;9.00;99.90
44767;DHT22;30487;48.716;9.272;2024-02-28T13:03:30;9.00;99.90
44767;DHT22;30487;48.716;9.272;2024-02-28T13:05:55;9.00;99.90
44767;DHT22;30487;48.716;9.272;2024-02-28T13:08:21;9.00;99.90
44767;DHT22;30487;48.716;9.272;2024-02-28T13:10:47;9.00;99.90
44767;DHT22;30487;48.716;9.272;2024-02-28T13:13:12;9.00;99.90
44767;DHT22;30487;48.716;9.272;2024-02-28T13:15:39;9.00;99.90
44767;DHT22;30487;48.716;9.272;2024-02-28T13:18:05;8.90;99.90
44767;DHT22;30487;48.716;9.272;2024-02-28T13:20:34;8.90;99.90
44767;DHT22;30487;48.716;9.272;2024-02-28T13:23:00;8.90;99.90
44767;DHT22;30487;48.716;9.272;2024-02-28T13:25:26;8.90;99.90
44767;DHT22;30487;48.716;9.272;2024-02-28T13:27:52;8.90;99.90
44767;DHT22;30487;48.716;9.272;2024-02-28T13:30:17;8.90;99.90
44767;DHT22;30487;48.716;9.272;2024-02-28T13:32:43;8.90;99.90
44767;DHT22;30487;48.716;9.272;2024-02-28T13:35:09;8.90;99.90
44767;DHT22;30487;48.716;9.272;2024-02-28T13:37:35;8.80;99.90
44767;DHT22;30487;48.716;9.272;2024-02-28T13:40:02;8.80;99.90
44767;DHT22;30487;48.716;9.272;2024-02-28T13:42:30;8.70;99.90
44767;DHT22;30487;48.716;9.272;2024-02-28T13:44:55;8.70;99.90
44767;DHT22;30487;48.716;9.272;2024-02-28T13:47:21;8.70;99.90
44767;DHT22;30487;48.716;9.272;2024-02-28T13:49:46;8.70;99.90
44767;DHT22;30487;48.716;9.272;2024-02-28T13:52:13;8.70;99.90
44767;DHT22;30487;48.716;9.272;2024-02-28T13:54:38;8.70;99.90
44767;DHT22;30487;48.716;9.272;2024-02-28T13:57:04;8.60;99.90
44767;DHT22;30487;48.716;9.272;2024-02-28T13:59:30;8.60;99.90
44767;DHT22;30487;48.716;9.272;2024-02-28T14:01:56;8.60;99.90
44767;DHT22;30487;48.716;9.272;2024-02-28T14:04:22;8.60;99.90
44767;DHT22;30487;48.716;9.272;2024-02-28T14:06:47;8.60;99.90
44767;DHT22;30487;48.716;9.272;2024-02-28T14:09:14;8.60;99.90
44767;DHT22;30487;48.716;9.272;2024-02-28T14:11:40;8.60;99.90
44767;DHT22;30487;48.716;9.272;2024-02-28T14:14:06;8.60;99.90
44767;DHT22;30487;48.716;9.272;2024-02-28T14:16:32;8.70;99.90
44767;DHT22;30487;48.716;9.272;2024-02-28T14:18:58;8.70;99.90
44767;DHT22;30487;48.716;9.272;2024-02-28T14:21:24;8.70;99.90
44767;DHT22;30487;48.716;9.272;2024-02-28T14:23:50;8.80;99.90
44767;DHT22;30487;48.716;9.272;2024-02-28T14:26:16;8.80;99.90
44767;DHT22;30487;48.716;9.272;2024-02-28T14:28:41;8.80;99.90
44767;DHT22;30487;48.716;9.272;2024-02-28T14:31:07;8.90;99.90
44767;DHT22;30487;48.716;9.272;2024-02-28T14:33:32;8.90;99.90
44767;DHT22;30487;48.716;9.272;2024-02-28T14:35:58;8.90;99.90
44767;DHT22;30487;48.716;9.272;2024-02-28T14:38:25;9.00;99.90
44767;DHT22;30487;48.716;9.272;2024-02-28T14:40:51;9.00;99.90
44767;DHT22;30487;48.716;9.272;2024-02-28T14:43:16;9.00;99.90
44767;DHT22;30487;48.716;9.272;2024-02-28T14:45:42;9.00;99.90
44767;DHT22;30487;48.716;9.272;2024-02-28T14:48:08;8.90;99.90
44767;DHT22;30487;48.716;9.272;2024-02-28T14:50:34;8.90;99.90
44767;DHT22;30487;48.716;9.272;2024-02-28T14:52:59;9.00;99.90
44767;DHT22;30487;48.716;9.272;2024-02-28T14:55:25;9.00;99.90
44767;DHT22;30487;48.716;9.272;2024-02-28T14:57:50;9.00;99.90
44767;DHT22;30487;48.716;9.272;2024-02-28T15:00:19;9.00;99.90
44767;DHT22;30487;48.716;9.272;2024-02-28T15:02:44;9.00;99.90
44767;DHT22;30487;48.716;9.272;2024-02-28T15:05:11;9.00;99.90
44767;DHT22;30487;48.716;9.272;2024-02-28T15:07:37;9.00;99.90
44767;DHT22;30487;48.716;9.272;2024-02-28T15:10:05;9.00;99.90
44767;DHT22;30487;48.716;9.272;2024-02-28T15:12:32;8.90;99.90
44767;DHT22;30487;48.716;9.272;2024-02-28T15:15:02;8.90;99.90
44767;DHT22;30487;48.716;9.272;2024-02-28T15:17:28;8.80;99.90
44767;DHT22;30487;48.716;9.272;2024-02-28T15:19:53;8.70;99.90
44767;DHT22;30487;48.716;9.272;2024-02-28T15:22:19;8.70;99.90
44767;DHT22;30487;48.716;9.272;2024-02-28T15:24:45;8.70;99.90
44767;DHT22;30487;48.716;9.272;2024-02-28T15:27:12;8.60;99.90
44767;DHT22;30487;48.716;9.272;2024-02-28T15:29:37;8.50;99.90
44767;DHT22;30487;48.716;9.272;2024-02-28T15:32:03;8.50;99.90
44767;DHT22;30487;48.716;9.272;2024-02-28T15:34:29;8.50;99.90
44767;DHT22;30487;48.716;9.272;2024-02-28T15:36:54;8.40;99.90
44767;DHT22;30487;48.716;9.272;2024-02-28T15:39:20;8.40;99.90